Terminal Aerodrome Forecast
Issued by NWS

Home | Current Version | Previous Version | Text Only | Print | Product List | Glossary On
Versions: 1 2 3 4 5 6 7 8 9 10 11 12 13 14 15 16 17 18 19 20 21 22 23 24 25 26 27
000
FTUS46 KSEW 201120
TAFSEA
TAF
KSEA 201120Z 2012/2118 21010KT P6SM OVC012
     FM201800 19012G18KT P6SM BKN020 OVC050
     FM202000 21013G20KT P6SM -SHRA SCT030 BKN050 OVC100
     FM210100 22010KT P6SM SCT035 BKN080 OVC120
     FM211100 17006KT P6SM -RA BKN040 OVC080
     FM211500 13008KT 6SM -RA BKN020 OVC040=

USA.gov is the U.S. government's official web portal to all federal, state and local government web resources and services.